createdAt,value
2022-12-23T00:00:07.151Z,41.03
2022-12-23T00:03:14.627Z,41.65
2022-12-23T00:06:20.425Z,41.65
2022-12-23T00:09:23.100Z,40.85
2022-12-23T00:12:44.093Z,41.55
2022-12-23T00:15:46.707Z,38.97
2022-12-23T00:18:50.819Z,43.20
2022-12-23T00:21:53.450Z,43.88
2022-12-23T00:24:56.080Z,42.70
2022-12-23T00:28:01.548Z,40.97
2022-12-23T00:31:06.950Z,42.27
2022-12-23T00:34:11.972Z,41.63
2022-12-23T00:37:14.642Z,41.95
2022-12-23T00:40:35.832Z,41.42
2022-12-23T00:43:38.507Z,43.55
2022-12-23T00:46:41.490Z,40.67
2022-12-23T00:49:45.665Z,42.13
2022-12-23T00:52:48.352Z,39.78
2022-12-23T00:55:51.360Z,41.05
2022-12-23T00:58:53.992Z,43.42
2022-12-23T01:02:15.782Z,43.00
2022-12-23T01:05:38.399Z,41.83
2022-12-23T01:08:41.537Z,42.75
2022-12-23T01:11:44.150Z,42.80
2022-12-23T01:14:46.853Z,39.17
2022-12-23T01:17:49.499Z,42.73
2022-12-23T01:20:53.754Z,41.47
2022-12-23T01:23:56.363Z,40.53
2022-12-23T01:26:59.167Z,40.47
2022-12-23T01:30:01.962Z,40.33
2022-12-23T01:33:06.023Z,41.93
2022-12-23T01:36:10.951Z,39.85
2022-12-23T01:39:13.673Z,41.33
2022-12-23T01:42:37.306Z,40.50
2022-12-23T01:45:39.964Z,41.10
2022-12-23T01:48:45.506Z,39.87
2022-12-23T01:51:49.693Z,40.60
2022-12-23T01:54:53.013Z,40.45
2022-12-23T01:58:00.682Z,39.85
2022-12-23T02:01:22.956Z,41.05
2022-12-23T02:04:26.172Z,40.93
2022-12-23T02:07:50.265Z,40.58
2022-12-23T02:11:15.860Z,41.70
2022-12-23T02:14:49.331Z,42.85
2022-12-23T02:18:06.304Z,39.03
2022-12-23T02:21:27.289Z,40.00
2022-12-23T02:25:05.793Z,40.17
2022-12-23T02:28:40.880Z,39.53
2022-12-23T02:31:55.244Z,40.05
2022-12-23T02:35:04.942Z,41.05
2022-12-23T02:38:12.576Z,39.87
2022-12-23T02:41:23.382Z,42.40
2022-12-23T02:44:33.209Z,38.90
2022-12-23T02:47:42.238Z,39.47
2022-12-23T02:50:48.172Z,39.78
2022-12-23T02:53:54.428Z,38.23
2022-12-23T02:57:00.725Z,38.53
2022-12-23T03:00:05.525Z,38.83
2022-12-23T03:03:12.101Z,39.33
2022-12-23T03:06:21.737Z,38.67
2022-12-23T03:09:31.283Z,38.57
2022-12-23T03:12:47.220Z,38.72
2022-12-23T03:15:59.421Z,35.78
2022-12-23T03:19:14.345Z,37.85
2022-12-23T03:22:25.838Z,37.30
2022-12-23T03:25:33.931Z,36.77
2022-12-23T03:28:44.152Z,37.53
2022-12-23T03:31:48.772Z,36.05
2022-12-23T03:34:56.925Z,38.30
2022-12-23T03:38:02.351Z,37.38
2022-12-23T03:41:09.929Z,38.50
2022-12-23T03:44:19.566Z,37.08
2022-12-23T03:47:28.042Z,36.53
2022-12-23T03:50:36.454Z,36.50
2022-12-23T03:53:44.830Z,38.88
2022-12-23T03:56:53.158Z,36.87
2022-12-23T03:59:56.337Z,39.70
2022-12-23T04:03:10.285Z,36.08
2022-12-23T04:06:17.593Z,37.90
2022-12-23T04:09:22.563Z,37.03
2022-12-23T04:12:31.106Z,35.47
2022-12-23T04:15:38.706Z,37.22
2022-12-23T04:18:41.434Z,37.85
2022-12-23T04:21:45.528Z,36.42
2022-12-23T04:24:48.141Z,37.83
2022-12-23T04:27:50.748Z,35.57
2022-12-23T04:30:53.557Z,36.30
2022-12-23T04:33:56.696Z,36.22
2022-12-23T04:37:00.858Z,35.50
2022-12-23T04:40:04.213Z,36.05
2022-12-23T04:43:06.938Z,35.60
2022-12-23T04:46:09.515Z,34.55
2022-12-23T04:49:12.150Z,34.50
2022-12-23T04:52:16.436Z,34.50
2022-12-23T04:55:19.084Z,36.13
2022-12-23T04:58:22.338Z,33.17
2022-12-23T05:01:24.967Z,33.67
2022-12-23T05:04:28.995Z,33.95
2022-12-23T05:07:33.044Z,33.63
2022-12-23T05:10:37.546Z,32.72
2022-12-23T05:13:40.242Z,32.50
2022-12-23T05:16:42.831Z,32.45
2022-12-23T05:19:45.750Z,32.38
2022-12-23T05:22:50.328Z,37.05
2022-12-23T05:25:54.216Z,33.40
2022-12-23T05:28:56.878Z,36.30
2022-12-23T05:31:59.605Z,33.55
2022-12-23T05:35:02.431Z,35.88
2022-12-23T05:38:06.639Z,36.33
2022-12-23T05:41:09.316Z,33.28
2022-12-23T05:44:12.007Z,32.20
2022-12-23T05:47:14.731Z,36.25
2022-12-23T05:50:17.721Z,32.67
2022-12-23T05:53:21.994Z,34.25
2022-12-23T05:56:24.689Z,34.28
2022-12-23T05:59:30.969Z,33.10
2022-12-23T06:02:34.516Z,36.67
2022-12-23T06:05:38.999Z,35.38
2022-12-23T06:08:43.140Z,34.05
2022-12-23T06:11:46.074Z,34.72
2022-12-23T06:14:48.801Z,35.13
2022-12-23T06:17:51.681Z,35.17
2022-12-23T06:20:54.568Z,34.20
2022-12-23T06:23:58.906Z,33.45
2022-12-23T06:27:01.682Z,32.35
2022-12-23T06:30:05.165Z,36.80
2022-12-23T06:33:08.120Z,37.22
2022-12-23T06:36:10.915Z,37.30
2022-12-23T06:39:15.040Z,35.03
2022-12-23T06:42:17.745Z,34.47
2022-12-23T06:45:20.452Z,34.93
2022-12-23T06:48:23.066Z,37.17
2022-12-23T06:51:25.758Z,38.17
2022-12-23T06:54:29.844Z,38.90
2022-12-23T06:57:32.613Z,36.88
2022-12-23T07:00:39.749Z,37.27
2022-12-23T07:03:42.523Z,38.28
2022-12-23T07:06:45.322Z,39.88
2022-12-23T07:09:49.458Z,38.70
2022-12-23T07:12:52.118Z,38.85
2022-12-23T07:15:55.142Z,39.03
2022-12-23T07:18:57.930Z,39.45
2022-12-23T07:22:03.942Z,37.65
2022-12-23T07:25:09.200Z,36.83
2022-12-23T07:28:11.949Z,53.03
2022-12-23T07:31:15.023Z,41.73
2022-12-23T07:34:18.875Z,44.90
2022-12-23T07:37:21.482Z,56.42
2022-12-23T07:40:27.330Z,38.83
2022-12-23T07:43:30.041Z,58.60
2022-12-23T07:46:32.964Z,35.03
2022-12-23T07:49:35.800Z,34.85
2022-12-23T07:52:38.953Z,33.75
2022-12-23T07:55:42.923Z,30.52
2022-12-23T07:58:48.508Z,39.35
2022-12-23T08:01:51.169Z,44.77
2022-12-23T08:04:53.936Z,35.75
2022-12-23T08:07:56.565Z,33.42
2022-12-23T08:11:03.823Z,33.10
2022-12-23T08:14:07.071Z,34.20
2022-12-23T08:17:09.922Z,33.10
2022-12-23T08:20:13.062Z,35.60
2022-12-23T08:23:21.382Z,37.90
2022-12-23T08:26:28.433Z,35.63
2022-12-23T08:29:36.020Z,40.30
2022-12-23T08:32:39.342Z,33.63
2022-12-23T08:35:42.076Z,32.55
2022-12-23T08:38:45.626Z,34.10
2022-12-23T08:41:49.727Z,34.83
2022-12-23T08:44:56.719Z,34.22
2022-12-23T08:47:59.426Z,37.07
2022-12-23T08:51:05.687Z,33.67
2022-12-23T08:54:08.478Z,35.63
2022-12-23T08:57:12.617Z,33.22
2022-12-23T09:00:17.299Z,31.80
2022-12-23T09:03:20.221Z,34.47
2022-12-23T09:06:29.697Z,36.00
2022-12-23T09:09:33.523Z,35.08
2022-12-23T09:12:37.639Z,38.72
2022-12-23T09:15:42.305Z,32.47
2022-12-23T09:18:45.177Z,36.00
2022-12-23T09:21:48.112Z,31.88
2022-12-23T09:24:51.199Z,34.63
2022-12-23T09:27:55.469Z,31.05
2022-12-23T09:30:58.311Z,31.60
2022-12-23T09:34:01.371Z,28.07
2022-12-23T09:37:04.602Z,30.27
2022-12-23T09:40:11.048Z,28.42
2022-12-23T09:43:25.063Z,31.85
2022-12-23T09:46:32.849Z,32.30
2022-12-23T09:49:44.947Z,31.63
2022-12-23T09:52:57.851Z,29.77
2022-12-23T09:56:06.637Z,30.02
2022-12-23T09:59:22.429Z,37.03
2022-12-23T10:02:37.584Z,31.58
2022-12-23T10:05:56.292Z,35.07
2022-12-23T10:09:01.565Z,30.65
2022-12-23T10:12:14.342Z,30.35
2022-12-23T10:15:26.093Z,30.70
2022-12-23T10:18:44.741Z,30.25
2022-12-23T10:21:50.650Z,30.27
2022-12-23T10:24:55.569Z,31.27
2022-12-23T10:27:58.393Z,28.95
2022-12-23T10:31:30.904Z,31.45
2022-12-23T10:34:40.563Z,40.85
2022-12-23T10:37:55.348Z,33.43
2022-12-23T10:41:09.469Z,34.33
2022-12-23T10:44:33.422Z,34.15
2022-12-23T10:47:48.304Z,33.97
2022-12-23T10:50:59.545Z,32.20
2022-12-23T10:54:06.825Z,33.80
2022-12-23T10:57:10.462Z,32.65
2022-12-23T11:00:21.817Z,34.20
2022-12-23T11:03:28.885Z,33.00
2022-12-23T11:06:37.479Z,32.60
2022-12-23T11:09:44.156Z,33.27
2022-12-23T11:12:49.999Z,31.92
2022-12-23T11:15:53.061Z,32.53
2022-12-23T11:19:00.736Z,32.40
2022-12-23T11:22:04.146Z,32.50
2022-12-23T11:25:27.145Z,32.80
2022-12-23T11:28:31.514Z,31.70
2022-12-23T11:31:36.523Z,32.03
2022-12-23T11:34:45.846Z,39.22
2022-12-23T11:37:48.585Z,35.13
2022-12-23T11:40:51.469Z,32.63
2022-12-23T11:44:00.100Z,32.00
2022-12-23T11:47:23.120Z,32.97
2022-12-23T11:50:31.624Z,32.58
2022-12-23T11:53:36.715Z,32.50
2022-12-23T11:56:41.024Z,35.03
2022-12-23T11:59:51.273Z,35.72
2022-12-23T12:02:57.112Z,36.42
2022-12-23T12:06:03.706Z,35.50
2022-12-23T12:09:06.928Z,35.13
2022-12-23T12:12:17.511Z,33.43
2022-12-23T12:15:29.189Z,36.03
2022-12-23T12:18:34.038Z,35.63
2022-12-23T12:21:39.166Z,37.13
2022-12-23T12:24:51.008Z,38.40
2022-12-23T12:27:58.103Z,37.23
2022-12-23T12:31:11.719Z,33.85
2022-12-23T12:34:25.642Z,36.45
2022-12-23T12:37:39.716Z,34.90
2022-12-23T12:40:51.091Z,36.55
2022-12-23T12:44:17.568Z,36.53
2022-12-23T12:47:52.686Z,33.47
2022-12-23T12:51:01.259Z,35.10
2022-12-23T12:54:15.911Z,37.08
2022-12-23T12:57:21.354Z,36.70
2022-12-23T13:00:25.148Z,38.17
2022-12-23T13:03:51.591Z,44.10
2022-12-23T13:07:04.903Z,47.55
2022-12-23T13:10:14.819Z,36.58
2022-12-23T13:13:32.403Z,33.92
2022-12-23T13:16:45.551Z,35.90
2022-12-23T13:19:56.887Z,38.83
2022-12-23T13:23:41.117Z,38.97
2022-12-23T13:26:37.802Z,37.58
2022-12-23T13:29:57.548Z,33.42
2022-12-23T13:33:14.958Z,38.07
2022-12-23T13:36:32.708Z,36.28
2022-12-23T13:39:49.400Z,35.33
2022-12-23T13:42:59.749Z,36.85
2022-12-23T13:46:08.352Z,36.25
2022-12-23T13:49:19.987Z,36.27
2022-12-23T13:52:47.621Z,35.85
2022-12-23T13:56:06.046Z,40.78
2022-12-23T13:59:11.941Z,40.45
2022-12-23T14:02:40.872Z,42.15
2022-12-23T14:05:45.536Z,38.87
2022-12-23T14:08:48.777Z,38.35
2022-12-23T14:11:52.856Z,40.58
2022-12-23T14:15:28.090Z,38.10
2022-12-23T14:18:45.111Z,36.60
2022-12-23T14:21:57.933Z,39.40
2022-12-23T14:25:40.776Z,35.72
2022-12-23T14:28:56.473Z,34.17
2022-12-23T14:32:01.092Z,37.30
2022-12-23T14:35:17.320Z,38.25
2022-12-23T14:38:31.177Z,37.73
2022-12-23T14:41:38.924Z,43.65
2022-12-23T14:44:50.259Z,39.97
2022-12-23T14:47:54.384Z,40.50
2022-12-23T14:51:02.731Z,42.42
2022-12-23T14:54:15.958Z,42.13
2022-12-23T14:57:25.271Z,42.58
2022-12-23T15:00:32.199Z,45.00
2022-12-23T15:03:43.629Z,42.53
2022-12-23T15:06:48.484Z,45.80
2022-12-23T15:10:00.275Z,45.50
2022-12-23T15:13:06.037Z,44.47
2022-12-23T15:16:16.879Z,48.45
2022-12-23T15:19:24.351Z,48.00
2022-12-23T15:22:32.628Z,45.80
2022-12-23T15:25:39.996Z,49.40
2022-12-23T15:28:42.913Z,51.45
2022-12-23T15:31:48.682Z,51.17
2022-12-23T15:34:58.914Z,50.33
2022-12-23T15:38:02.891Z,66.03
2022-12-23T15:41:15.119Z,58.53
2022-12-23T15:44:20.838Z,49.75
2022-12-23T15:47:25.795Z,51.65
2022-12-23T15:50:40.289Z,54.53
2022-12-23T15:53:46.832Z,49.83
2022-12-23T15:56:52.319Z,52.97
2022-12-23T15:59:56.109Z,46.75
2022-12-23T16:03:01.226Z,50.35
2022-12-23T16:06:17.810Z,52.67
2022-12-23T16:09:31.787Z,51.55
2022-12-23T16:12:34.939Z,51.00
2022-12-23T16:15:37.647Z,48.88
2022-12-23T16:18:47.165Z,59.03
2022-12-23T16:21:51.588Z,58.88
2022-12-23T16:25:01.590Z,59.15
2022-12-23T16:28:07.661Z,54.03
2022-12-23T16:31:11.346Z,57.47
2022-12-23T16:34:14.091Z,56.28
2022-12-23T16:37:18.254Z,61.17
2022-12-23T16:40:24.596Z,53.58
2022-12-23T16:43:27.634Z,54.77
2022-12-23T16:46:36.365Z,63.22
2022-12-23T16:49:39.141Z,56.72
2022-12-23T16:52:43.349Z,57.53
2022-12-23T16:55:53.879Z,59.53
2022-12-23T16:58:57.911Z,61.57
2022-12-23T17:02:03.742Z,58.22
2022-12-23T17:05:07.855Z,62.53
2022-12-23T17:08:12.084Z,74.57
2022-12-23T17:11:17.467Z,73.78
2022-12-23T17:14:22.350Z,63.70
2022-12-23T17:17:26.047Z,66.80
2022-12-23T17:20:28.969Z,71.00
2022-12-23T17:23:33.089Z,97.97
2022-12-23T17:26:35.832Z,251.93
2022-12-23T17:29:38.472Z,257.43
2022-12-23T17:32:41.586Z,98.40
2022-12-23T17:35:44.365Z,69.15
2022-12-23T17:38:48.457Z,77.82
2022-12-23T17:41:51.385Z,72.05
2022-12-23T17:44:54.085Z,83.67
2022-12-23T17:47:57.190Z,134.15
2022-12-23T17:51:00.096Z,126.35
2022-12-23T17:54:06.452Z,142.75
2022-12-23T17:57:17.799Z,119.38
2022-12-23T18:00:29.864Z,100.23
2022-12-23T18:03:36.957Z,90.35
2022-12-23T18:06:39.563Z,71.63
2022-12-23T18:09:44.014Z,61.08
2022-12-23T18:12:49.989Z,62.40
2022-12-23T18:15:52.678Z,67.87
2022-12-23T18:18:55.620Z,70.55
2022-12-23T18:21:58.820Z,67.68
2022-12-23T18:25:03.378Z,63.25
2022-12-23T18:28:06.324Z,75.93
2022-12-23T18:31:15.206Z,91.90
2022-12-23T18:34:22.279Z,85.45
2022-12-23T18:37:25.022Z,86.93
2022-12-23T18:40:33.158Z,91.30
2022-12-23T18:43:37.183Z,86.22
2022-12-23T18:46:39.808Z,88.40
2022-12-23T18:49:43.197Z,91.03
2022-12-23T18:52:46.675Z,89.38
2022-12-23T18:55:51.174Z,90.97
2022-12-23T18:58:53.821Z,101.07
2022-12-23T19:01:56.968Z,98.73
2022-12-23T19:04:59.881Z,82.82
2022-12-23T19:08:02.699Z,72.82
2022-12-23T19:11:11.463Z,74.30
2022-12-23T19:14:14.755Z,71.72
2022-12-23T19:17:17.568Z,80.27
2022-12-23T19:20:25.504Z,91.88
2022-12-23T19:23:28.787Z,86.95
2022-12-23T19:26:32.777Z,91.25
2022-12-23T19:29:35.567Z,85.32
2022-12-23T19:32:38.159Z,88.83
2022-12-23T19:35:42.048Z,89.85
2022-12-23T19:38:45.061Z,81.63
2022-12-23T19:41:49.264Z,91.88
2022-12-23T19:44:52.023Z,74.88
2022-12-23T19:47:54.690Z,79.63
2022-12-23T19:50:59.029Z,83.22
2022-12-23T19:54:01.797Z,89.50
2022-12-23T19:57:05.783Z,80.45
2022-12-23T20:00:09.991Z,81.45
2022-12-23T20:03:15.988Z,80.63
2022-12-23T20:06:20.946Z,80.03
2022-12-23T20:09:23.835Z,80.10
2022-12-23T20:12:28.062Z,79.40
2022-12-23T20:15:30.728Z,81.65
2022-12-23T20:18:34.209Z,82.67
2022-12-23T20:21:40.142Z,87.10
2022-12-23T20:24:44.216Z,83.28
2022-12-23T20:27:48.241Z,86.40
2022-12-23T20:30:58.933Z,82.10
2022-12-23T20:34:02.457Z,93.87
2022-12-23T20:37:05.152Z,81.07
2022-12-23T20:40:10.401Z,80.90
2022-12-23T20:43:15.461Z,76.68
2022-12-23T20:46:19.125Z,76.13
2022-12-23T20:49:21.858Z,77.40
2022-12-23T20:52:25.589Z,79.97
2022-12-23T20:55:28.202Z,86.72
2022-12-23T20:58:50.517Z,96.40
2022-12-23T21:01:53.324Z,86.43
2022-12-23T21:04:56.022Z,78.20
2022-12-23T21:07:58.704Z,78.90
2022-12-23T21:11:03.459Z,77.28
2022-12-23T21:14:08.072Z,75.47
2022-12-23T21:17:10.811Z,72.55
2022-12-23T21:20:13.552Z,59.13
2022-12-23T21:23:16.560Z,59.80
2022-12-23T21:26:21.639Z,64.70
2022-12-23T21:29:26.210Z,61.10
2022-12-23T21:32:28.894Z,65.00
2022-12-23T21:35:31.559Z,75.63
2022-12-23T21:38:36.038Z,77.82
2022-12-23T21:41:41.239Z,74.13
2022-12-23T21:44:45.295Z,86.28
2022-12-23T21:47:47.976Z,82.82
2022-12-23T21:50:54.967Z,76.93
2022-12-23T21:53:59.077Z,58.85
2022-12-23T21:57:01.747Z,56.05
2022-12-23T22:00:07.180Z,58.63
2022-12-23T22:03:09.828Z,57.05
2022-12-23T22:06:15.249Z,56.73
2022-12-23T22:09:19.686Z,55.83
2022-12-23T22:12:22.393Z,54.85
2022-12-23T22:15:26.351Z,46.45
2022-12-23T22:18:29.010Z,49.55
2022-12-23T22:21:33.963Z,49.33
2022-12-23T22:24:36.812Z,50.38
2022-12-23T22:27:39.519Z,48.22
2022-12-23T22:30:43.602Z,50.38
2022-12-23T22:33:46.976Z,58.80
2022-12-23T22:36:50.245Z,51.97
2022-12-23T22:39:53.104Z,54.47
2022-12-23T22:42:57.331Z,61.83
2022-12-23T22:46:02.452Z,53.45
2022-12-23T22:49:05.739Z,49.63
2022-12-23T22:52:08.461Z,47.43
2022-12-23T22:55:11.168Z,46.85
2022-12-23T22:58:13.876Z,47.30
2022-12-23T23:01:22.467Z,47.10
2022-12-23T23:04:25.388Z,47.28
2022-12-23T23:07:27.978Z,44.37
2022-12-23T23:10:33.435Z,45.20
2022-12-23T23:13:36.338Z,45.80
2022-12-23T23:16:40.731Z,45.03
2022-12-23T23:19:43.450Z,45.03
2022-12-23T23:22:46.110Z,45.83
2022-12-23T23:25:49.767Z,45.35
2022-12-23T23:28:52.492Z,45.35
2022-12-23T23:31:58.700Z,44.47
2022-12-23T23:35:08.581Z,45.97
2022-12-23T23:38:13.100Z,42.53
2022-12-23T23:41:20.651Z,43.25
2022-12-23T23:44:25.784Z,41.92
2022-12-23T23:47:34.444Z,43.42
2022-12-23T23:50:37.151Z,41.55
2022-12-23T23:53:40.468Z,42.77
2022-12-23T23:56:43.234Z,42.88
2022-12-23T23:59:45.880Z,44.42
